Terminal Aerodrome Forecast
Issued by NWS State College, PA

Home | Current Version | Previous Version | Text Only | Print | Product List | Glossary On
Versions: 1 2 3 4 5 6 7 8 9 10 11 12 13 14 15 16 17 18 19 20 21 22 23 24 25 26 27 28
000
FTUS41 KCTP 240929 AAB
TAFMDT
TAF AMD
KMDT 240929Z 2409/2506 18015G25KT 4SM -SHRA OVC015 WS020/16050KT
     FM241200 23010KT 6SM -SHRA OVC025
     FM241500 22007KT P6SM BKN050=

USA.gov is the U.S. government's official web portal to all federal, state and local government web resources and services.